Airfield :
LOGIN :

Register | Disclaimer

   EN    FR    IT 

 










Legend :    VFR   Marginal VFR   IFR   Intensive IFR   Very Intensive IFR
Visi :
Ceiling :
>= 8 km
>= 3000ft
5 to 8 km
1000 to 3000 ft
1500m to 5 km
500 to 1000 ft
800 to 1500m
200 to 500 ft
< 800m
< 200 ft
Symbols :   Thunderstorms  Fog  Heavy snow  Heavy precipitations  Wind > 20 kt
SIGMETs :     Misc.  Thunderstorms  Icing  Turbulence  Mountain Waves  Volcanic Ashes







- Airport Elevation : 40 ft
- IATA code : RMI


LIPR - Federico Fellini Int. Rimini

CURRENT METAR :
  • 240915Z 06005KT 9999 BKN030 SCT040 24/21 Q1017

EXPIRED METARs :
  • 240845Z 06004KT 9999 BKN030 24/19 Q1016
  • 240815Z 04003KT 9999 SCT030 24/19 Q1016
  • 240745Z 05002KT 9999 SCT030 24/19 Q1016
  • 240715Z 00000KT 9999 SCT030 23/18 Q1016
  • 240645Z 00000KT 9999 SCT030 22/17 Q1016

TAF TAF LIPR
Valid from the 24 at 09:00 until the 24 at 18:00 UTC


240800Z 2409/2418 05006KT 9999 FEW060
No reported NOTAMs for that airfield.
1 SIGMET reported for the Milano FIR (LIMM) :
 
Severe turbulence
LIMM SIGMET 1 VALID 240830/241230 LIMM- LIMM MILANO FIR SEV TURB FCST WI N4627 E00951 - N4653 E01022 - N4704 E01210 - N4625 E01340 - N4602 E01336 - N4627 E00951 FL300/400 STNR NC=



MET'MAP, your aeronautical weather chart ! - Copyright ORBIFLY December 2007 - Disclaimer

ORBIFLY MET'MAP TEAM :

Programming & Development : Alexandra Zaïnal
Concept & Development : Baudouin d'Aumeries
Co-Development & Prog : Marc-Olivier Méhu
Technical & hardware support : Manuel Goepfert

Contact : metmap@orbifly.com




SOURCES & CREDITS :

   NOAA